createdAt,value
2022-09-22T00:01:00.930Z,16.64
2022-09-22T00:03:31.029Z,16.70
2022-09-22T00:06:02.679Z,16.66
2022-09-22T00:08:32.171Z,16.89
2022-09-22T00:11:02.531Z,16.88
2022-09-22T00:13:30.488Z,16.86
2022-09-22T00:15:58.233Z,16.84
2022-09-22T00:18:26.034Z,16.83
2022-09-22T00:20:53.695Z,16.82
2022-09-22T00:23:21.470Z,16.81
2022-09-22T00:25:49.787Z,16.80
2022-09-22T00:28:20.279Z,16.79
2022-09-22T00:30:48.004Z,16.78
2022-09-22T00:33:15.687Z,16.78
2022-09-22T00:35:43.379Z,16.77
2022-09-22T00:38:11.062Z,16.75
2022-09-22T00:40:38.837Z,16.76
2022-09-22T00:43:14.575Z,16.76
2022-09-22T00:45:43.633Z,16.46
2022-09-22T00:48:11.323Z,16.71
2022-09-22T00:50:38.978Z,16.69
2022-09-22T00:53:08.311Z,16.69
2022-09-22T00:55:37.982Z,16.70
2022-09-22T00:58:07.755Z,16.67
2022-09-22T01:00:35.504Z,16.67
2022-09-22T01:03:05.874Z,16.60
2022-09-22T01:05:33.881Z,16.35
2022-09-22T01:08:01.653Z,16.64
2022-09-22T01:10:29.337Z,16.64
2022-09-22T01:13:02.308Z,16.62
2022-09-22T01:15:32.540Z,16.61
2022-09-22T01:18:05.062Z,16.59
2022-09-22T01:21:13.365Z,16.59
2022-09-22T01:24:07.155Z,16.61
2022-09-22T01:27:00.308Z,16.24
2022-09-22T01:29:57.551Z,16.13
2022-09-22T01:32:28.779Z,16.43
2022-09-22T01:34:57.827Z,16.54
2022-09-22T01:37:26.762Z,16.54
2022-09-22T01:39:56.344Z,16.53
2022-09-22T01:42:28.139Z,16.52
2022-09-22T01:44:57.239Z,16.51
2022-09-22T01:47:28.381Z,16.40
2022-09-22T01:49:59.084Z,16.16
2022-09-22T01:52:28.721Z,16.47
2022-09-22T01:54:58.022Z,16.48
2022-09-22T01:57:29.754Z,16.46
2022-09-22T02:00:06.608Z,16.48
2022-09-22T02:02:37.961Z,16.04
2022-09-22T02:05:07.013Z,16.14
2022-09-22T02:07:36.663Z,16.45
2022-09-22T02:10:06.860Z,16.46
2022-09-22T02:12:35.272Z,16.40
2022-09-22T02:15:02.999Z,16.36
2022-09-22T02:17:34.980Z,16.40
2022-09-22T02:20:05.913Z,16.41
2022-09-22T02:22:33.618Z,16.40
2022-09-22T02:25:01.285Z,16.38
2022-09-22T02:27:35.633Z,16.34
2022-09-22T02:30:04.852Z,16.29
2022-09-22T02:32:32.588Z,16.33
2022-09-22T02:35:02.150Z,16.27
2022-09-22T02:37:33.959Z,16.32
2022-09-22T02:40:05.690Z,16.35
2022-09-22T02:42:34.702Z,16.30
2022-09-22T02:45:05.272Z,16.31
2022-09-22T02:47:35.380Z,16.07
2022-09-22T02:50:03.142Z,16.25
2022-09-22T02:52:32.212Z,16.28
2022-09-22T02:54:59.972Z,16.29
2022-09-22T02:57:27.645Z,16.27
2022-09-22T02:59:55.336Z,16.25
2022-09-22T03:02:23.017Z,16.25
2022-09-22T03:04:51.324Z,16.22
2022-09-22T03:07:19.079Z,16.20
2022-09-22T03:09:48.119Z,16.20
2022-09-22T03:12:15.818Z,16.21
2022-09-22T03:14:44.039Z,16.21
2022-09-22T03:17:11.725Z,16.19
2022-09-22T03:19:39.425Z,16.18
2022-09-22T03:22:07.095Z,16.15
2022-09-22T03:24:34.809Z,16.14
2022-09-22T03:27:03.864Z,16.15
2022-09-22T03:29:31.561Z,16.13
2022-09-22T03:31:59.219Z,16.14
2022-09-22T03:34:26.913Z,16.12
2022-09-22T03:36:54.607Z,16.12
2022-09-22T03:39:22.326Z,16.10
2022-09-22T03:41:50.466Z,16.10
2022-09-22T03:44:19.546Z,16.08
2022-09-22T03:46:47.222Z,16.08
2022-09-22T03:49:15.053Z,16.07
2022-09-22T03:51:42.753Z,16.01
2022-09-22T03:54:10.437Z,16.03
2022-09-22T03:56:38.134Z,16.02
2022-09-22T03:59:06.059Z,16.01
2022-09-22T04:01:35.093Z,16.00
2022-09-22T04:04:03.236Z,16.00
2022-09-22T04:06:30.911Z,15.99
2022-09-22T04:08:58.640Z,16.00
2022-09-22T04:11:26.359Z,16.01
2022-09-22T04:13:54.186Z,15.96
2022-09-22T04:16:21.941Z,15.97
2022-09-22T04:18:50.992Z,15.96
2022-09-22T04:21:18.651Z,15.93
2022-09-22T04:23:46.335Z,15.92
2022-09-22T04:26:13.986Z,15.86
2022-09-22T04:28:41.778Z,15.86
2022-09-22T04:31:09.527Z,15.84
2022-09-22T04:33:37.494Z,15.84
2022-09-22T04:36:07.326Z,15.79
2022-09-22T04:38:35.041Z,15.83
2022-09-22T04:41:02.699Z,15.81
2022-09-22T04:43:30.434Z,15.80
2022-09-22T04:45:58.170Z,15.78
2022-09-22T04:48:25.919Z,15.79
2022-09-22T04:50:53.588Z,15.82
2022-09-22T04:53:22.632Z,15.77
2022-09-22T04:55:50.431Z,15.74
2022-09-22T04:58:18.133Z,15.25
2022-09-22T05:00:45.811Z,15.71
2022-09-22T05:03:15.634Z,15.72
2022-09-22T05:05:48.039Z,15.68
2022-09-22T05:08:16.279Z,15.63
2022-09-22T05:10:45.341Z,15.60
2022-09-22T05:13:13.644Z,15.53
2022-09-22T05:15:41.888Z,15.61
2022-09-22T05:18:09.640Z,15.60
2022-09-22T05:20:37.940Z,15.63
2022-09-22T05:23:07.146Z,15.65
2022-09-22T05:25:34.814Z,15.69
2022-09-22T05:28:03.927Z,15.62
2022-09-22T05:30:31.610Z,15.64
2022-09-22T05:32:59.622Z,15.61
2022-09-22T05:35:27.386Z,15.61
2022-09-22T05:37:55.168Z,15.63
2022-09-22T05:40:24.076Z,15.59
2022-09-22T05:42:52.455Z,15.23
2022-09-22T05:45:21.599Z,15.60
2022-09-22T05:47:49.260Z,15.63
2022-09-22T05:50:17.871Z,15.37
2022-09-22T05:52:45.547Z,15.62
2022-09-22T05:55:13.463Z,15.19
2022-09-22T05:57:41.162Z,15.67
2022-09-22T06:00:09.914Z,15.74
2022-09-22T06:02:39.268Z,15.72
2022-09-22T06:05:07.279Z,15.66
2022-09-22T06:07:34.991Z,15.76
2022-09-22T06:10:02.684Z,15.77
2022-09-22T06:12:30.930Z,15.72
2022-09-22T06:14:58.663Z,15.64
2022-09-22T06:17:26.385Z,15.58
2022-09-22T06:19:55.430Z,15.54
2022-09-22T06:22:24.247Z,15.57
2022-09-22T06:24:51.977Z,15.61
2022-09-22T06:27:19.667Z,15.65
2022-09-22T06:29:47.378Z,15.65
2022-09-22T06:32:15.192Z,15.67
2022-09-22T06:34:45.207Z,15.66
2022-09-22T06:37:14.609Z,15.72
2022-09-22T06:39:42.599Z,15.73
2022-09-22T06:42:10.925Z,15.80
2022-09-22T06:44:38.901Z,15.84
2022-09-22T06:47:09.143Z,15.84
2022-09-22T06:49:37.456Z,15.87
2022-09-22T06:52:06.078Z,15.45
2022-09-22T06:54:35.483Z,15.94
2022-09-22T06:57:03.870Z,15.95
2022-09-22T06:59:31.546Z,15.99
2022-09-22T07:01:59.335Z,16.02
2022-09-22T07:04:27.318Z,16.04
2022-09-22T07:06:55.114Z,15.77
2022-09-22T07:09:22.824Z,16.10
2022-09-22T07:11:51.996Z,16.10
2022-09-22T07:14:22.400Z,16.18
2022-09-22T07:16:52.483Z,16.23
2022-09-22T07:19:20.183Z,16.26
2022-09-22T07:21:47.853Z,16.29
2022-09-22T07:24:15.734Z,16.31
2022-09-22T07:26:43.942Z,16.34
2022-09-22T07:29:16.225Z,16.37
2022-09-22T07:31:44.222Z,16.35
2022-09-22T07:34:12.800Z,16.46
2022-09-22T07:36:40.964Z,16.27
2022-09-22T07:39:11.114Z,16.59
2022-09-22T07:41:43.011Z,16.65
2022-09-22T07:44:28.715Z,16.45
2022-09-22T07:46:57.799Z,16.69
2022-09-22T07:49:25.503Z,16.71
2022-09-22T07:51:54.764Z,16.75
2022-09-22T07:54:22.638Z,16.45
2022-09-22T07:56:58.583Z,16.46
2022-09-22T07:59:26.735Z,16.89
2022-09-22T08:01:54.444Z,16.85
2022-09-22T08:04:23.851Z,16.81
2022-09-22T08:06:53.521Z,16.65
2022-09-22T08:09:21.210Z,16.46
2022-09-22T08:11:50.132Z,16.45
2022-09-22T08:14:18.261Z,16.52
2022-09-22T08:16:46.844Z,16.23
2022-09-22T08:19:14.796Z,16.41
2022-09-22T08:21:48.745Z,16.89
2022-09-22T08:24:21.318Z,16.55
2022-09-22T08:26:50.096Z,17.03
2022-09-22T08:29:17.779Z,17.09
2022-09-22T08:31:46.916Z,16.92
2022-09-22T08:34:16.813Z,16.93
2022-09-22T08:36:48.233Z,17.28
2022-09-22T08:39:16.163Z,17.01
2022-09-22T08:41:47.644Z,17.16
2022-09-22T08:44:20.379Z,17.41
2022-09-22T08:46:48.517Z,17.09
2022-09-22T08:49:37.861Z,17.46
2022-09-22T08:52:09.826Z,17.52
2022-09-22T08:54:38.755Z,17.60
2022-09-22T08:57:21.341Z,17.66
2022-09-22T08:59:52.105Z,17.70
2022-09-22T09:02:40.155Z,17.76
2022-09-22T09:05:47.067Z,17.78
2022-09-22T09:08:39.321Z,17.77
2022-09-22T09:11:12.907Z,17.74
2022-09-22T09:13:48.923Z,17.73
2022-09-22T09:16:25.825Z,17.48
2022-09-22T09:18:55.515Z,17.78
2022-09-22T09:21:23.175Z,17.79
2022-09-22T09:26:41.920Z,17.83
2022-09-22T09:29:11.484Z,17.57
2022-09-22T09:31:41.250Z,17.87
2022-09-22T09:34:11.645Z,17.89
2022-09-22T09:36:41.180Z,17.92
2022-09-22T09:39:14.259Z,17.64
2022-09-22T09:41:42.399Z,17.95
2022-09-22T09:44:15.666Z,17.96
2022-09-22T09:46:51.830Z,17.99
2022-09-22T09:49:20.791Z,17.85
2022-09-22T09:51:49.506Z,18.03
2022-09-22T09:54:18.960Z,17.75
2022-09-22T09:57:03.497Z,18.06
2022-09-22T09:59:48.743Z,17.97
2022-09-22T10:02:16.643Z,17.74
2022-09-22T10:04:51.633Z,18.12
2022-09-22T10:07:21.332Z,18.12
2022-09-22T10:09:51.095Z,17.67
2022-09-22T10:12:27.007Z,17.74
2022-09-22T10:14:55.355Z,18.15
2022-09-22T10:17:24.236Z,17.83
2022-09-22T10:19:51.931Z,18.19
2022-09-22T10:22:27.448Z,18.09
2022-09-22T10:25:00.311Z,18.24
2022-09-22T10:27:28.971Z,18.24
2022-09-22T10:30:22.439Z,18.26
2022-09-22T10:33:07.210Z,17.75
2022-09-22T10:35:36.135Z,18.05
2022-09-22T10:38:08.011Z,18.24
2022-09-22T10:40:37.128Z,18.31
2022-09-22T10:43:05.015Z,18.10
2022-09-22T10:45:37.639Z,17.99
2022-09-22T10:48:06.170Z,18.17
2022-09-22T10:50:57.046Z,18.28
2022-09-22T10:53:37.652Z,18.28
2022-09-22T10:56:11.382Z,18.35
2022-09-22T10:59:06.520Z,18.35
2022-09-22T11:01:45.032Z,18.33
2022-09-22T11:04:31.614Z,18.31
2022-09-22T11:07:27.422Z,18.01
2022-09-22T11:10:14.922Z,18.23
2022-09-22T11:12:48.139Z,18.21
2022-09-22T11:15:33.311Z,18.19
2022-09-22T11:18:20.548Z,18.20
2022-09-22T11:20:49.341Z,18.18
2022-09-22T11:24:08.271Z,18.22
2022-09-22T11:26:48.788Z,18.23
2022-09-22T11:29:50.384Z,18.26
2022-09-22T11:32:30.653Z,17.88
2022-09-22T11:35:04.984Z,18.33
2022-09-22T11:37:40.193Z,18.40
2022-09-22T11:40:33.639Z,18.43
2022-09-22T11:43:09.285Z,18.43
2022-09-22T11:45:44.769Z,18.42
2022-09-22T11:48:18.828Z,18.46
2022-09-22T11:50:55.125Z,18.48
2022-09-22T11:53:32.207Z,18.49
2022-09-22T11:56:16.663Z,18.26
2022-09-22T11:58:44.679Z,18.51
2022-09-22T12:01:15.094Z,18.52
2022-09-22T12:03:45.582Z,18.51
2022-09-22T12:06:15.406Z,18.52
2022-09-22T12:08:45.375Z,18.41
2022-09-22T12:11:14.085Z,18.50
2022-09-22T12:13:43.687Z,18.48
2022-09-22T12:16:13.947Z,18.43
2022-09-22T12:18:43.638Z,18.43
2022-09-22T12:21:20.731Z,18.43
2022-09-22T12:23:51.314Z,18.43
2022-09-22T12:26:27.119Z,17.86
2022-09-22T12:28:54.849Z,18.43
2022-09-22T12:33:53.343Z,18.46
2022-09-22T12:36:29.639Z,17.38
2022-09-22T12:39:08.142Z,18.53
2022-09-22T12:41:48.329Z,18.72
2022-09-22T12:44:19.618Z,18.92
2022-09-22T12:46:48.815Z,19.03
2022-09-22T12:49:18.964Z,19.04
2022-09-22T12:51:46.459Z,19.05
2022-09-22T12:54:39.723Z,18.73
2022-09-22T12:57:29.376Z,18.85
2022-09-22T13:00:32.087Z,18.75
2022-09-22T13:03:02.471Z,18.56
2022-09-22T13:05:34.707Z,18.61
2022-09-22T13:08:02.365Z,18.53
2022-09-22T13:10:52.862Z,18.55
2022-09-22T13:13:36.671Z,18.51
2022-09-22T13:16:05.939Z,18.48
2022-09-22T13:18:36.788Z,18.10
2022-09-22T13:21:20.071Z,18.31
2022-09-22T13:23:57.600Z,18.48
2022-09-22T13:26:26.213Z,18.26
2022-09-22T13:29:01.058Z,18.22
2022-09-22T13:31:29.049Z,18.44
2022-09-22T13:33:58.169Z,18.44
2022-09-22T13:36:27.079Z,18.44
2022-09-22T13:41:15.159Z,18.40
2022-09-22T13:43:44.337Z,18.42
2022-09-22T13:46:18.258Z,18.41
2022-09-22T13:48:46.124Z,18.39
2022-09-22T13:51:15.741Z,18.34
2022-09-22T13:53:43.732Z,18.36
2022-09-22T13:56:12.463Z,18.35
2022-09-22T13:58:41.174Z,18.35
2022-09-22T14:01:14.813Z,18.35
2022-09-22T14:03:42.732Z,18.35
2022-09-22T14:06:11.446Z,18.32
2022-09-22T14:08:40.489Z,18.36
2022-09-22T14:11:12.778Z,18.37
2022-09-22T14:13:41.188Z,18.05
2022-09-22T14:16:18.153Z,18.24
2022-09-22T14:18:47.146Z,18.39
2022-09-22T14:21:14.802Z,18.40
2022-09-22T14:23:47.823Z,18.19
2022-09-22T14:26:28.167Z,18.30
2022-09-22T14:28:55.963Z,18.40
2022-09-22T14:31:25.830Z,18.16
2022-09-22T14:33:53.581Z,18.43
2022-09-22T14:36:22.215Z,18.45
2022-09-22T14:39:05.856Z,18.47
2022-09-22T14:41:37.685Z,18.47
2022-09-22T14:44:26.411Z,18.46
2022-09-22T14:46:56.259Z,18.42
2022-09-22T14:49:35.962Z,18.46
2022-09-22T14:52:03.829Z,18.44
2022-09-22T14:54:32.869Z,18.45
2022-09-22T14:57:00.686Z,18.49
2022-09-22T14:59:45.988Z,18.51
2022-09-22T15:02:27.846Z,18.22
2022-09-22T15:04:55.561Z,18.55
2022-09-22T15:07:25.912Z,18.51
2022-09-22T15:09:56.455Z,18.66
2022-09-22T15:12:38.153Z,18.76
2022-09-22T15:15:16.461Z,18.61
2022-09-22T15:18:02.109Z,18.43
2022-09-22T15:20:34.907Z,18.69
2022-09-22T15:23:02.735Z,18.90
2022-09-22T15:25:31.842Z,18.95
2022-09-22T15:27:59.486Z,18.96
2022-09-22T15:30:32.755Z,19.01
2022-09-22T15:33:00.472Z,19.03
2022-09-22T15:35:28.397Z,19.11
2022-09-22T15:37:56.206Z,19.16
2022-09-22T15:40:24.595Z,19.21
2022-09-22T15:43:13.077Z,19.30
2022-09-22T15:45:47.667Z,19.02
2022-09-22T15:48:23.939Z,19.44
2022-09-22T15:50:51.817Z,19.14
2022-09-22T15:53:19.498Z,19.53
2022-09-22T15:55:47.949Z,19.57
2022-09-22T15:58:18.488Z,19.60
2022-09-22T16:00:47.297Z,19.66
2022-09-22T16:03:16.478Z,19.69
2022-09-22T16:05:44.881Z,19.74
2022-09-22T16:08:15.065Z,19.73
2022-09-22T16:10:44.265Z,19.74
2022-09-22T16:13:12.090Z,19.79
2022-09-22T16:15:41.524Z,19.81
2022-09-22T16:18:10.105Z,19.81
2022-09-22T16:20:38.298Z,19.86
2022-09-22T16:23:06.409Z,19.91
2022-09-22T16:25:34.108Z,19.92
2022-09-22T16:28:02.058Z,19.94
2022-09-22T16:30:30.388Z,19.93
2022-09-22T16:32:59.453Z,19.95
2022-09-22T16:35:27.148Z,19.91
2022-09-22T16:37:55.702Z,19.86
2022-09-22T16:40:24.686Z,19.81
2022-09-22T16:42:52.479Z,19.76
2022-09-22T16:45:41.094Z,19.71
2022-09-22T16:48:10.146Z,19.66
2022-09-22T16:50:37.857Z,19.60
2022-09-22T16:53:07.518Z,19.54
2022-09-22T16:55:37.408Z,19.48
2022-09-22T16:58:07.302Z,19.40
2022-09-22T17:00:35.108Z,19.35
2022-09-22T17:03:02.781Z,19.30
2022-09-22T17:05:32.832Z,19.27
2022-09-22T17:08:04.722Z,18.94
2022-09-22T17:10:35.942Z,19.19
2022-09-22T17:13:04.934Z,19.15
2022-09-22T17:15:35.912Z,19.13
2022-09-22T17:18:04.279Z,19.08
2022-09-22T17:20:33.332Z,19.05
2022-09-22T17:23:01.036Z,19.00
2022-09-22T17:25:29.113Z,18.95
2022-09-22T17:27:57.683Z,18.97
2022-09-22T17:30:25.387Z,18.93
2022-09-22T17:32:53.611Z,18.90
2022-09-22T17:35:21.306Z,18.88
2022-09-22T17:37:53.339Z,18.86
2022-09-22T17:40:21.102Z,18.83
2022-09-22T17:42:48.888Z,18.80
2022-09-22T17:45:16.815Z,18.79
2022-09-22T17:48:01.998Z,18.77
2022-09-22T17:50:47.418Z,18.75
2022-09-22T17:53:34.251Z,18.52
2022-09-22T17:56:05.180Z,18.70
2022-09-22T17:58:32.972Z,18.68
2022-09-22T18:01:00.682Z,18.65
2022-09-22T18:03:29.048Z,18.63
2022-09-22T18:05:57.468Z,18.60
2022-09-22T18:08:26.467Z,18.59
2022-09-22T18:10:54.443Z,18.58
2022-09-22T18:13:22.091Z,18.58
2022-09-22T18:15:52.313Z,18.55
2022-09-22T18:18:20.004Z,18.53
2022-09-22T18:20:48.409Z,18.52
2022-09-22T18:23:16.744Z,18.49
2022-09-22T18:25:45.849Z,18.38
2022-09-22T18:28:13.519Z,18.42
2022-09-22T18:30:41.237Z,18.44
2022-09-22T18:33:09.623Z,18.43
2022-09-22T18:35:37.328Z,18.42
2022-09-22T18:38:05.012Z,18.38
2022-09-22T18:40:32.794Z,18.40
2022-09-22T18:43:01.818Z,18.36
2022-09-22T18:45:29.829Z,18.37
2022-09-22T18:47:59.083Z,18.35
2022-09-22T18:50:28.185Z,18.32
2022-09-22T18:52:56.740Z,18.26
2022-09-22T18:55:24.455Z,18.32
2022-09-22T18:57:52.219Z,18.31
2022-09-22T19:00:22.082Z,18.29
2022-09-22T19:02:50.449Z,17.94
2022-09-22T19:05:18.365Z,18.27
2022-09-22T19:07:47.758Z,18.23
2022-09-22T19:10:20.541Z,18.25
2022-09-22T19:12:48.632Z,18.24
2022-09-22T19:15:18.827Z,18.24
2022-09-22T19:17:49.538Z,18.19
2022-09-22T19:20:18.416Z,18.20
2022-09-22T19:22:46.859Z,18.21
2022-09-22T19:25:14.992Z,18.19
2022-09-22T19:27:42.679Z,18.19
2022-09-22T19:30:11.409Z,17.75
2022-09-22T19:32:39.248Z,18.18
2022-09-22T19:35:09.239Z,18.17
2022-09-22T19:37:36.954Z,17.90
2022-09-22T19:40:05.322Z,18.15
2022-09-22T19:42:36.906Z,18.14
2022-09-22T19:45:08.200Z,18.13
2022-09-22T19:47:35.880Z,18.12
2022-09-22T19:50:03.883Z,17.88
2022-09-22T19:52:34.891Z,18.13
2022-09-22T19:55:02.783Z,18.08
2022-09-22T19:57:31.839Z,18.04
2022-09-22T19:59:59.703Z,18.08
2022-09-22T20:02:27.462Z,18.08
2022-09-22T20:04:55.976Z,18.06
2022-09-22T20:07:27.758Z,18.04
2022-09-22T20:09:57.347Z,18.05
2022-09-22T20:12:25.044Z,18.03
2022-09-22T20:14:53.324Z,18.00
2022-09-22T20:17:22.005Z,18.00
2022-09-22T20:19:49.917Z,18.02
2022-09-22T20:22:19.793Z,18.02
2022-09-22T20:24:54.197Z,18.02
2022-09-22T20:27:25.325Z,18.01
2022-09-22T20:29:57.037Z,17.98
2022-09-22T20:32:25.215Z,17.67
2022-09-22T20:34:54.072Z,17.98
2022-09-22T20:37:21.844Z,17.97
2022-09-22T20:39:49.815Z,17.95
2022-09-22T20:42:17.521Z,17.94
2022-09-22T20:44:46.875Z,17.92
2022-09-22T20:47:15.658Z,17.92
2022-09-22T20:49:45.842Z,17.92
2022-09-22T20:52:16.365Z,17.91
2022-09-22T20:54:44.167Z,17.90
2022-09-22T20:57:11.878Z,17.86
2022-09-22T20:59:40.037Z,17.87
2022-09-22T21:02:10.571Z,17.85
2022-09-22T21:04:38.295Z,17.79
2022-09-22T21:07:06.042Z,17.87
2022-09-22T21:09:51.188Z,17.86
2022-09-22T21:12:18.860Z,17.84
2022-09-22T21:14:46.549Z,17.81
2022-09-22T21:17:15.583Z,17.81
2022-09-22T21:19:43.350Z,17.82
2022-09-22T21:22:11.108Z,17.79
2022-09-22T21:24:39.376Z,17.80
2022-09-22T21:27:07.086Z,17.75
2022-09-22T21:29:34.815Z,17.75
2022-09-22T21:32:03.024Z,17.70
2022-09-22T21:34:32.092Z,17.74
2022-09-22T21:37:00.575Z,17.71
2022-09-22T21:39:28.262Z,17.72
2022-09-22T21:41:56.474Z,17.69
2022-09-22T21:44:24.209Z,17.70
2022-09-22T21:46:51.946Z,17.69
2022-09-22T21:49:19.635Z,17.67
2022-09-22T21:51:48.685Z,17.66
2022-09-22T21:54:17.817Z,17.44
2022-09-22T21:56:45.538Z,17.63
2022-09-22T21:59:13.358Z,17.66
2022-09-22T22:01:42.050Z,17.65
2022-09-22T22:04:13.791Z,17.64
2022-09-22T22:06:42.096Z,17.24
2022-09-22T22:09:14.689Z,17.41
2022-09-22T22:11:43.528Z,17.63
2022-09-22T22:14:12.114Z,17.63
2022-09-22T22:16:40.800Z,17.26
2022-09-22T22:19:09.318Z,17.60
2022-09-22T22:21:37.155Z,17.60
2022-09-22T22:24:23.045Z,17.39
2022-09-22T22:26:52.786Z,17.56
2022-09-22T22:29:21.022Z,17.19
2022-09-22T22:31:49.070Z,17.32
2022-09-22T22:34:18.193Z,17.51
2022-09-22T22:36:45.999Z,17.18
2022-09-22T22:39:13.849Z,17.49
2022-09-22T22:41:41.686Z,17.12
2022-09-22T22:44:12.278Z,16.65
2022-09-22T22:46:40.062Z,17.46
2022-09-22T22:49:08.294Z,17.45
2022-09-22T22:51:36.723Z,17.44
2022-09-22T22:54:04.981Z,17.43
2022-09-22T22:56:32.753Z,17.43
2022-09-22T22:59:00.463Z,17.42
2022-09-22T23:01:30.232Z,16.97
2022-09-22T23:04:00.208Z,17.11
2022-09-22T23:06:29.624Z,16.95
2022-09-22T23:08:57.396Z,17.38
2022-09-22T23:11:27.009Z,17.00
2022-09-22T23:13:56.188Z,16.92
2022-09-22T23:16:25.156Z,17.05
2022-09-22T23:18:54.210Z,17.33
2022-09-22T23:21:22.228Z,17.07
2022-09-22T23:23:50.163Z,17.32
2022-09-22T23:26:18.157Z,17.31
2022-09-22T23:28:45.857Z,17.25
2022-09-22T23:31:14.459Z,17.28
2022-09-22T23:33:43.510Z,17.26
2022-09-22T23:36:13.899Z,17.27
2022-09-22T23:38:41.571Z,17.17
2022-09-22T23:41:10.380Z,16.79
2022-09-22T23:43:38.135Z,17.23
2022-09-22T23:46:07.408Z,17.22
2022-09-22T23:48:35.304Z,17.04
2022-09-22T23:51:03.158Z,17.20
2022-09-22T23:53:33.356Z,17.17
2022-09-22T23:56:00.919Z,17.14
2022-09-22T23:58:28.809Z,17.01
